sensor_id;sensor_type;location;lat;lon;timestamp;temperature;humidity
9965;DHT22;5023;53.554;9.964;2024-01-27T00:04:41;6.40;99.90
9965;DHT22;5023;53.554;9.964;2024-01-27T00:09:43;6.50;99.90
9965;DHT22;5023;53.554;9.964;2024-01-27T00:14:46;6.50;99.90
9965;DHT22;5023;53.554;9.964;2024-01-27T00:19:48;6.50;99.90
9965;DHT22;5023;53.554;9.964;2024-01-27T00:24:56;6.40;99.90
9965;DHT22;5023;53.554;9.964;2024-01-27T00:30:00;6.40;99.90
9965;DHT22;5023;53.554;9.964;2024-01-27T00:35:02;6.40;99.90
9965;DHT22;5023;53.554;9.964;2024-01-27T00:40:07;6.50;99.90
9965;DHT22;5023;53.554;9.964;2024-01-27T00:45:11;6.50;99.90
9965;DHT22;5023;53.554;9.964;2024-01-27T00:50:13;6.50;99.90
9965;DHT22;5023;53.554;9.964;2024-01-27T00:55:15;6.50;99.90
9965;DHT22;5023;53.554;9.964;2024-01-27T01:00:19;6.50;99.90
9965;DHT22;5023;53.554;9.964;2024-01-27T01:05:21;6.60;99.90
9965;DHT22;5023;53.554;9.964;2024-01-27T01:10:23;6.50;99.90
9965;DHT22;5023;53.554;9.964;2024-01-27T01:15:28;6.50;99.90
9965;DHT22;5023;53.554;9.964;2024-01-27T01:20:30;6.50;99.90
9965;DHT22;5023;53.554;9.964;2024-01-27T01:25:33;6.50;99.90
9965;DHT22;5023;53.554;9.964;2024-01-27T01:30:36;6.50;99.90
9965;DHT22;5023;53.554;9.964;2024-01-27T01:35:38;6.60;99.90
9965;DHT22;5023;53.554;9.964;2024-01-27T01:40:40;6.60;99.90
9965;DHT22;5023;53.554;9.964;2024-01-27T01:45:43;6.60;99.90
9965;DHT22;5023;53.554;9.964;2024-01-27T01:50:46;6.50;99.90
9965;DHT22;5023;53.554;9.964;2024-01-27T01:55:48;6.50;99.90
9965;DHT22;5023;53.554;9.964;2024-01-27T02:00:52;6.40;99.90
9965;DHT22;5023;53.554;9.964;2024-01-27T02:05:54;6.40;99.90
9965;DHT22;5023;53.554;9.964;2024-01-27T02:10:56;6.40;99.90
9965;DHT22;5023;53.554;9.964;2024-01-27T02:16:00;6.50;99.90
9965;DHT22;5023;53.554;9.964;2024-01-27T02:21:02;6.50;99.90
9965;DHT22;5023;53.554;9.964;2024-01-27T02:26:05;6.50;99.90
9965;DHT22;5023;53.554;9.964;2024-01-27T02:31:07;6.40;99.90
9965;DHT22;5023;53.554;9.964;2024-01-27T02:36:09;6.60;99.90
9965;DHT22;5023;53.554;9.964;2024-01-27T02:41:12;6.60;99.90
9965;DHT22;5023;53.554;9.964;2024-01-27T02:46:15;6.60;99.90
9965;DHT22;5023;53.554;9.964;2024-01-27T02:51:19;6.50;99.90
9965;DHT22;5023;53.554;9.964;2024-01-27T02:56:23;6.60;99.90
9965;DHT22;5023;53.554;9.964;2024-01-27T03:01:25;6.50;99.90
9965;DHT22;5023;53.554;9.964;2024-01-27T03:06:27;6.60;99.90
9965;DHT22;5023;53.554;9.964;2024-01-27T03:11:30;6.40;99.90
9965;DHT22;5023;53.554;9.964;2024-01-27T03:16:32;6.40;99.90
9965;DHT22;5023;53.554;9.964;2024-01-27T03:21:34;6.20;99.90
9965;DHT22;5023;53.554;9.964;2024-01-27T03:26:38;6.20;99.90
9965;DHT22;5023;53.554;9.964;2024-01-27T03:31:40;6.20;99.90
9965;DHT22;5023;53.554;9.964;2024-01-27T03:36:41;6.20;99.90
9965;DHT22;5023;53.554;9.964;2024-01-27T03:41:45;6.10;99.90
9965;DHT22;5023;53.554;9.964;2024-01-27T03:46:47;6.10;99.90
9965;DHT22;5023;53.554;9.964;2024-01-27T03:51:49;6.10;99.90
9965;DHT22;5023;53.554;9.964;2024-01-27T03:56:53;6.00;99.90
9965;DHT22;5023;53.554;9.964;2024-01-27T04:01:55;6.00;99.90
9965;DHT22;5023;53.554;9.964;2024-01-27T04:06:57;6.00;99.90
9965;DHT22;5023;53.554;9.964;2024-01-27T04:12:00;6.00;99.90
9965;DHT22;5023;53.554;9.964;2024-01-27T04:17:02;5.80;99.90
9965;DHT22;5023;53.554;9.964;2024-01-27T04:22:04;5.70;99.90
9965;DHT22;5023;53.554;9.964;2024-01-27T04:27:08;5.90;99.90
9965;DHT22;5023;53.554;9.964;2024-01-27T04:32:09;5.70;99.90
9965;DHT22;5023;53.554;9.964;2024-01-27T04:37:11;5.60;99.90
9965;DHT22;5023;53.554;9.964;2024-01-27T04:42:15;5.60;99.90
9965;DHT22;5023;53.554;9.964;2024-01-27T04:47:17;5.50;99.90
9965;DHT22;5023;53.554;9.964;2024-01-27T04:52:19;5.50;99.90
9965;DHT22;5023;53.554;9.964;2024-01-27T04:57:23;5.40;99.90
9965;DHT22;5023;53.554;9.964;2024-01-27T05:02:24;5.40;99.90
9965;DHT22;5023;53.554;9.964;2024-01-27T05:07:27;5.40;99.90
9965;DHT22;5023;53.554;9.964;2024-01-27T05:12:30;5.40;99.90
9965;DHT22;5023;53.554;9.964;2024-01-27T05:17:32;5.30;99.90
9965;DHT22;5023;53.554;9.964;2024-01-27T05:22:34;5.30;99.90
9965;DHT22;5023;53.554;9.964;2024-01-27T05:27:38;5.20;99.90
9965;DHT22;5023;53.554;9.964;2024-01-27T05:32:40;5.20;99.90
9965;DHT22;5023;53.554;9.964;2024-01-27T05:37:42;5.20;99.90
9965;DHT22;5023;53.554;9.964;2024-01-27T05:42:45;5.10;99.90
9965;DHT22;5023;53.554;9.964;2024-01-27T05:47:47;5.00;99.90
9965;DHT22;5023;53.554;9.964;2024-01-27T05:52:49;5.00;99.90
9965;DHT22;5023;53.554;9.964;2024-01-27T05:57:52;5.00;99.90
9965;DHT22;5023;53.554;9.964;2024-01-27T06:02:55;4.90;99.90
9965;DHT22;5023;53.554;9.964;2024-01-27T06:07:57;4.90;99.90
9965;DHT22;5023;53.554;9.964;2024-01-27T06:13:01;4.90;99.90
9965;DHT22;5023;53.554;9.964;2024-01-27T06:18:04;4.80;99.90
9965;DHT22;5023;53.554;9.964;2024-01-27T06:23:06;4.80;99.90
9965;DHT22;5023;53.554;9.964;2024-01-27T06:28:09;4.80;99.90
9965;DHT22;5023;53.554;9.964;2024-01-27T06:33:11;4.70;99.90
9965;DHT22;5023;53.554;9.964;2024-01-27T06:38:13;4.70;99.90
9965;DHT22;5023;53.554;9.964;2024-01-27T06:43:17;4.70;99.90
9965;DHT22;5023;53.554;9.964;2024-01-27T06:48:19;4.50;99.90
9965;DHT22;5023;53.554;9.964;2024-01-27T06:53:20;4.50;99.90
9965;DHT22;5023;53.554;9.964;2024-01-27T06:58:24;4.40;99.90
9965;DHT22;5023;53.554;9.964;2024-01-27T07:03:26;4.40;99.90
9965;DHT22;5023;53.554;9.964;2024-01-27T07:08:28;4.40;99.90
9965;DHT22;5023;53.554;9.964;2024-01-27T07:13:31;4.40;99.90
9965;DHT22;5023;53.554;9.964;2024-01-27T07:18:33;4.30;99.90
9965;DHT22;5023;53.554;9.964;2024-01-27T07:23:36;4.30;99.90
9965;DHT22;5023;53.554;9.964;2024-01-27T07:28:39;4.40;99.90
9965;DHT22;5023;53.554;9.964;2024-01-27T07:33:41;4.30;99.90
9965;DHT22;5023;53.554;9.964;2024-01-27T07:38:43;4.30;99.90
9965;DHT22;5023;53.554;9.964;2024-01-27T07:43:46;4.20;99.90
9965;DHT22;5023;53.554;9.964;2024-01-27T07:48:48;4.50;99.90
9965;DHT22;5023;53.554;9.964;2024-01-27T07:53:50;4.10;99.90
9965;DHT22;5023;53.554;9.964;2024-01-27T07:58:53;4.10;99.90
9965;DHT22;5023;53.554;9.964;2024-01-27T08:03:55;4.10;99.90
9965;DHT22;5023;53.554;9.964;2024-01-27T08:08:57;4.10;99.90
9965;DHT22;5023;53.554;9.964;2024-01-27T08:14:01;4.10;99.90
9965;DHT22;5023;53.554;9.964;2024-01-27T08:19:03;4.10;99.90
9965;DHT22;5023;53.554;9.964;2024-01-27T08:24:05;4.00;99.90
9965;DHT22;5023;53.554;9.964;2024-01-27T08:29:09;4.10;99.90
9965;DHT22;5023;53.554;9.964;2024-01-27T08:34:11;4.10;99.90
9965;DHT22;5023;53.554;9.964;2024-01-27T08:39:14;4.20;99.90
9965;DHT22;5023;53.554;9.964;2024-01-27T08:44:17;4.20;99.90
9965;DHT22;5023;53.554;9.964;2024-01-27T08:49:19;4.20;99.90
9965;DHT22;5023;53.554;9.964;2024-01-27T08:54:21;4.10;99.90
9965;DHT22;5023;53.554;9.964;2024-01-27T08:59:24;4.30;99.90
9965;DHT22;5023;53.554;9.964;2024-01-27T09:04:26;4.40;99.90
9965;DHT22;5023;53.554;9.964;2024-01-27T09:09:28;4.50;99.90
9965;DHT22;5023;53.554;9.964;2024-01-27T09:14:32;4.60;99.90
9965;DHT22;5023;53.554;9.964;2024-01-27T09:19:34;4.60;99.90
9965;DHT22;5023;53.554;9.964;2024-01-27T09:24:36;4.70;99.90
9965;DHT22;5023;53.554;9.964;2024-01-27T09:29:39;4.80;99.90
9965;DHT22;5023;53.554;9.964;2024-01-27T09:34:41;4.80;99.90
9965;DHT22;5023;53.554;9.964;2024-01-27T09:39:43;4.90;99.90
9965;DHT22;5023;53.554;9.964;2024-01-27T09:44:48;5.00;99.90
9965;DHT22;5023;53.554;9.964;2024-01-27T09:49:50;5.10;99.90
9965;DHT22;5023;53.554;9.964;2024-01-27T09:54:52;5.20;99.90
9965;DHT22;5023;53.554;9.964;2024-01-27T09:59:56;5.40;99.90
9965;DHT22;5023;53.554;9.964;2024-01-27T10:04:59;5.40;99.90
9965;DHT22;5023;53.554;9.964;2024-01-27T10:10:02;5.50;99.90
9965;DHT22;5023;53.554;9.964;2024-01-27T10:15:06;5.70;99.90
9965;DHT22;5023;53.554;9.964;2024-01-27T10:20:08;5.80;99.90
9965;DHT22;5023;53.554;9.964;2024-01-27T10:25:10;5.90;99.90
9965;DHT22;5023;53.554;9.964;2024-01-27T10:30:17;5.90;99.90
9965;DHT22;5023;53.554;9.964;2024-01-27T10:35:19;6.00;99.90
9965;DHT22;5023;53.554;9.964;2024-01-27T10:40:21;6.10;99.90
9965;DHT22;5023;53.554;9.964;2024-01-27T10:45:27;6.20;99.90
9965;DHT22;5023;53.554;9.964;2024-01-27T10:50:34;6.30;99.90
9965;DHT22;5023;53.554;9.964;2024-01-27T10:55:38;6.40;99.90
9965;DHT22;5023;53.554;9.964;2024-01-27T11:00:43;6.50;99.90
9965;DHT22;5023;53.554;9.964;2024-01-27T11:05:47;6.50;99.90
9965;DHT22;5023;53.554;9.964;2024-01-27T11:10:50;6.60;99.90
9965;DHT22;5023;53.554;9.964;2024-01-27T11:15:54;6.60;99.90
9965;DHT22;5023;53.554;9.964;2024-01-27T11:20:58;6.70;99.90
9965;DHT22;5023;53.554;9.964;2024-01-27T11:26:04;6.80;99.90
9965;DHT22;5023;53.554;9.964;2024-01-27T11:31:08;7.00;99.90
9965;DHT22;5023;53.554;9.964;2024-01-27T11:36:18;7.00;99.90
9965;DHT22;5023;53.554;9.964;2024-01-27T11:41:24;7.20;99.90
9965;DHT22;5023;53.554;9.964;2024-01-27T11:46:28;7.30;99.90
9965;DHT22;5023;53.554;9.964;2024-01-27T11:51:30;7.40;99.90
9965;DHT22;5023;53.554;9.964;2024-01-27T11:56:32;7.50;99.90
9965;DHT22;5023;53.554;9.964;2024-01-27T12:01:35;7.50;99.90
9965;DHT22;5023;53.554;9.964;2024-01-27T12:06:38;7.60;99.90
9965;DHT22;5023;53.554;9.964;2024-01-27T12:11:41;7.90;99.90
9965;DHT22;5023;53.554;9.964;2024-01-27T12:16:44;7.90;99.90
9965;DHT22;5023;53.554;9.964;2024-01-27T12:21:48;7.90;99.90
9965;DHT22;5023;53.554;9.964;2024-01-27T12:26:52;8.20;99.90
9965;DHT22;5023;53.554;9.964;2024-01-27T12:31:56;8.20;99.90
9965;DHT22;5023;53.554;9.964;2024-01-27T12:37:00;8.30;99.90
9965;DHT22;5023;53.554;9.964;2024-01-27T12:42:03;8.40;99.90
9965;DHT22;5023;53.554;9.964;2024-01-27T12:47:07;8.40;99.90
9965;DHT22;5023;53.554;9.964;2024-01-27T12:52:08;8.40;99.90
9965;DHT22;5023;53.554;9.964;2024-01-27T12:57:10;8.30;99.90
9965;DHT22;5023;53.554;9.964;2024-01-27T13:02:14;8.40;99.90
9965;DHT22;5023;53.554;9.964;2024-01-27T13:07:16;8.30;99.90
9965;DHT22;5023;53.554;9.964;2024-01-27T13:12:18;8.30;99.90
9965;DHT22;5023;53.554;9.964;2024-01-27T13:17:21;8.30;99.90
9965;DHT22;5023;53.554;9.964;2024-01-27T13:22:23;8.30;99.90
9965;DHT22;5023;53.554;9.964;2024-01-27T13:27:25;8.30;99.90
9965;DHT22;5023;53.554;9.964;2024-01-27T13:32:28;8.30;99.90
9965;DHT22;5023;53.554;9.964;2024-01-27T13:37:30;8.40;99.90
9965;DHT22;5023;53.554;9.964;2024-01-27T13:42:34;8.30;99.90
9965;DHT22;5023;53.554;9.964;2024-01-27T13:47:37;8.20;99.90
9965;DHT22;5023;53.554;9.964;2024-01-27T13:52:39;8.20;99.90
9965;DHT22;5023;53.554;9.964;2024-01-27T13:57:43;8.10;99.90
9965;DHT22;5023;53.554;9.964;2024-01-27T14:02:47;8.00;99.90
9965;DHT22;5023;53.554;9.964;2024-01-27T14:07:49;8.10;99.90
9965;DHT22;5023;53.554;9.964;2024-01-27T14:12:51;8.00;99.90
9965;DHT22;5023;53.554;9.964;2024-01-27T14:17:54;8.00;99.90
9965;DHT22;5023;53.554;9.964;2024-01-27T14:22:56;8.00;99.90
9965;DHT22;5023;53.554;9.964;2024-01-27T14:28:00;8.00;99.90
9965;DHT22;5023;53.554;9.964;2024-01-27T14:33:07;8.00;99.90
9965;DHT22;5023;53.554;9.964;2024-01-27T14:38:09;7.90;99.90
9965;DHT22;5023;53.554;9.964;2024-01-27T14:43:11;7.90;99.90
9965;DHT22;5023;53.554;9.964;2024-01-27T14:48:14;7.90;99.90
9965;DHT22;5023;53.554;9.964;2024-01-27T14:53:18;7.80;99.90
9965;DHT22;5023;53.554;9.964;2024-01-27T14:58:21;7.90;99.90
9965;DHT22;5023;53.554;9.964;2024-01-27T15:03:27;7.90;99.90
9965;DHT22;5023;53.554;9.964;2024-01-27T15:08:29;7.90;99.90
9965;DHT22;5023;53.554;9.964;2024-01-27T15:13:31;8.00;99.90
9965;DHT22;5023;53.554;9.964;2024-01-27T15:18:34;7.80;99.90
9965;DHT22;5023;53.554;9.964;2024-01-27T15:23:44;7.70;99.90
9965;DHT22;5023;53.554;9.964;2024-01-27T15:28:46;7.70;99.90
9965;DHT22;5023;53.554;9.964;2024-01-27T15:33:52;7.60;99.90
9965;DHT22;5023;53.554;9.964;2024-01-27T15:39:28;7.60;99.90
9965;DHT22;5023;53.554;9.964;2024-01-27T15:44:39;7.60;99.90
9965;DHT22;5023;53.554;9.964;2024-01-27T15:49:41;7.50;99.90
9965;DHT22;5023;53.554;9.964;2024-01-27T15:54:45;7.40;99.90
9965;DHT22;5023;53.554;9.964;2024-01-27T15:59:49;7.40;99.90
9965;DHT22;5023;53.554;9.964;2024-01-27T16:04:51;7.40;99.90
9965;DHT22;5023;53.554;9.964;2024-01-27T16:09:54;7.50;99.90
9965;DHT22;5023;53.554;9.964;2024-01-27T16:15:04;7.30;99.90
9965;DHT22;5023;53.554;9.964;2024-01-27T16:20:07;7.30;99.90
9965;DHT22;5023;53.554;9.964;2024-01-27T16:25:11;7.20;99.90
9965;DHT22;5023;53.554;9.964;2024-01-27T16:30:13;7.20;99.90
9965;DHT22;5023;53.554;9.964;2024-01-27T16:35:16;7.20;99.90
9965;DHT22;5023;53.554;9.964;2024-01-27T16:40:20;7.00;99.90
9965;DHT22;5023;53.554;9.964;2024-01-27T16:45:22;7.20;99.90
9965;DHT22;5023;53.554;9.964;2024-01-27T16:50:24;7.00;99.90
9965;DHT22;5023;53.554;9.964;2024-01-27T16:55:27;7.00;99.90
9965;DHT22;5023;53.554;9.964;2024-01-27T17:00:29;7.00;99.90
9965;DHT22;5023;53.554;9.964;2024-01-27T17:05:31;7.00;99.90
9965;DHT22;5023;53.554;9.964;2024-01-27T17:10:35;7.00;99.90
9965;DHT22;5023;53.554;9.964;2024-01-27T17:15:37;6.90;99.90
9965;DHT22;5023;53.554;9.964;2024-01-27T17:20:42;6.90;99.90
9965;DHT22;5023;53.554;9.964;2024-01-27T17:25:45;7.30;99.90
9965;DHT22;5023;53.554;9.964;2024-01-27T17:30:47;6.80;99.90
9965;DHT22;5023;53.554;9.964;2024-01-27T17:35:49;6.80;99.90
9965;DHT22;5023;53.554;9.964;2024-01-27T17:40:53;6.70;99.90
9965;DHT22;5023;53.554;9.964;2024-01-27T17:45:55;6.70;99.90
9965;DHT22;5023;53.554;9.964;2024-01-27T17:50:57;6.60;99.90
9965;DHT22;5023;53.554;9.964;2024-01-27T17:56:00;6.60;99.90
9965;DHT22;5023;53.554;9.964;2024-01-27T18:01:03;6.60;99.90
9965;DHT22;5023;53.554;9.964;2024-01-27T18:06:05;6.50;99.90
9965;DHT22;5023;53.554;9.964;2024-01-27T18:11:10;6.50;99.90
9965;DHT22;5023;53.554;9.964;2024-01-27T18:16:12;6.50;99.90
9965;DHT22;5023;53.554;9.964;2024-01-27T18:21:15;6.50;99.90
9965;DHT22;5023;53.554;9.964;2024-01-27T18:26:18;6.40;99.90
9965;DHT22;5023;53.554;9.964;2024-01-27T18:31:21;6.30;99.90
9965;DHT22;5023;53.554;9.964;2024-01-27T18:36:23;6.30;99.90
9965;DHT22;5023;53.554;9.964;2024-01-27T18:41:26;6.30;99.90
9965;DHT22;5023;53.554;9.964;2024-01-27T18:46:29;6.50;99.90
9965;DHT22;5023;53.554;9.964;2024-01-27T18:51:32;6.50;99.90
9965;DHT22;5023;53.554;9.964;2024-01-27T18:56:36;6.10;99.90
9965;DHT22;5023;53.554;9.964;2024-01-27T19:01:39;6.10;99.90
9965;DHT22;5023;53.554;9.964;2024-01-27T19:06:43;6.10;99.90
9965;DHT22;5023;53.554;9.964;2024-01-27T19:11:47;6.20;99.90
9965;DHT22;5023;53.554;9.964;2024-01-27T19:16:49;6.00;99.90
9965;DHT22;5023;53.554;9.964;2024-01-27T19:21:51;5.90;99.90
9965;DHT22;5023;53.554;9.964;2024-01-27T19:26:55;6.00;99.90
9965;DHT22;5023;53.554;9.964;2024-01-27T19:31:57;5.90;99.90
9965;DHT22;5023;53.554;9.964;2024-01-27T19:37:00;5.90;99.90
9965;DHT22;5023;53.554;9.964;2024-01-27T19:42:04;6.10;99.90
9965;DHT22;5023;53.554;9.964;2024-01-27T19:47:06;5.80;99.90
9965;DHT22;5023;53.554;9.964;2024-01-27T19:52:08;5.80;99.90
9965;DHT22;5023;53.554;9.964;2024-01-27T19:57:12;5.70;99.90
9965;DHT22;5023;53.554;9.964;2024-01-27T20:02:18;5.70;99.90
9965;DHT22;5023;53.554;9.964;2024-01-27T20:07:20;5.70;99.90
9965;DHT22;5023;53.554;9.964;2024-01-27T20:12:24;5.70;99.90
9965;DHT22;5023;53.554;9.964;2024-01-27T20:17:26;5.60;99.90
9965;DHT22;5023;53.554;9.964;2024-01-27T20:22:28;5.60;99.90
9965;DHT22;5023;53.554;9.964;2024-01-27T20:27:31;5.60;99.90
9965;DHT22;5023;53.554;9.964;2024-01-27T20:32:33;5.70;99.90
9965;DHT22;5023;53.554;9.964;2024-01-27T20:37:36;5.60;99.90
9965;DHT22;5023;53.554;9.964;2024-01-27T20:42:39;5.50;99.90
9965;DHT22;5023;53.554;9.964;2024-01-27T20:47:41;5.60;99.90
9965;DHT22;5023;53.554;9.964;2024-01-27T20:52:44;5.70;99.90
9965;DHT22;5023;53.554;9.964;2024-01-27T20:57:48;5.50;99.90
9965;DHT22;5023;53.554;9.964;2024-01-27T21:02:50;5.50;99.90
9965;DHT22;5023;53.554;9.964;2024-01-27T21:07:52;5.40;99.90
9965;DHT22;5023;53.554;9.964;2024-01-27T21:12:55;5.60;99.90
9965;DHT22;5023;53.554;9.964;2024-01-27T21:17:57;5.50;99.90
9965;DHT22;5023;53.554;9.964;2024-01-27T21:22:59;5.50;99.90
9965;DHT22;5023;53.554;9.964;2024-01-27T21:28:04;5.50;99.90
9965;DHT22;5023;53.554;9.964;2024-01-27T21:33:06;5.50;99.90
9965;DHT22;5023;53.554;9.964;2024-01-27T21:38:10;5.50;99.90
9965;DHT22;5023;53.554;9.964;2024-01-27T21:43:13;5.50;99.90
9965;DHT22;5023;53.554;9.964;2024-01-27T21:48:15;5.50;99.90
9965;DHT22;5023;53.554;9.964;2024-01-27T21:53:18;5.70;99.90
9965;DHT22;5023;53.554;9.964;2024-01-27T21:58:21;5.60;99.90
9965;DHT22;5023;53.554;9.964;2024-01-27T22:03:24;5.60;99.90
9965;DHT22;5023;53.554;9.964;2024-01-27T22:08:25;5.60;99.90
9965;DHT22;5023;53.554;9.964;2024-01-27T22:13:30;5.60;99.90
9965;DHT22;5023;53.554;9.964;2024-01-27T22:18:32;5.60;99.90
9965;DHT22;5023;53.554;9.964;2024-01-27T22:23:35;5.40;99.90
9965;DHT22;5023;53.554;9.964;2024-01-27T22:28:39;5.40;99.90
9965;DHT22;5023;53.554;9.964;2024-01-27T22:33:41;5.40;99.90
9965;DHT22;5023;53.554;9.964;2024-01-27T22:38:43;5.40;99.90
9965;DHT22;5023;53.554;9.964;2024-01-27T22:43:47;5.30;99.90
9965;DHT22;5023;53.554;9.964;2024-01-27T22:48:54;5.30;99.90
9965;DHT22;5023;53.554;9.964;2024-01-27T22:53:56;5.20;99.90
9965;DHT22;5023;53.554;9.964;2024-01-27T22:58:59;5.30;99.90
9965;DHT22;5023;53.554;9.964;2024-01-27T23:04:01;5.30;99.90
9965;DHT22;5023;53.554;9.964;2024-01-27T23:09:06;5.40;99.90
9965;DHT22;5023;53.554;9.964;2024-01-27T23:14:09;5.40;99.90
9965;DHT22;5023;53.554;9.964;2024-01-27T23:19:12;5.30;99.90
9965;DHT22;5023;53.554;9.964;2024-01-27T23:24:14;5.20;99.90
9965;DHT22;5023;53.554;9.964;2024-01-27T23:29:17;5.20;99.90
9965;DHT22;5023;53.554;9.964;2024-01-27T23:34:19;5.20;99.90
9965;DHT22;5023;53.554;9.964;2024-01-27T23:39:21;5.20;99.90
9965;DHT22;5023;53.554;9.964;2024-01-27T23:44:24;5.10;99.90
9965;DHT22;5023;53.554;9.964;2024-01-27T23:49:26;5.20;99.90
9965;DHT22;5023;53.554;9.964;2024-01-27T23:54:29;5.10;99.90
9965;DHT22;5023;53.554;9.964;2024-01-27T23:59:35;5.10;99.90
